createdAt,value
2023-04-02T00:02:21.315Z,0.85
2023-04-02T00:05:25.993Z,0.80
2023-04-02T00:08:40.918Z,0.75
2023-04-02T00:11:48.874Z,1.00
2023-04-02T00:14:55.194Z,0.70
2023-04-02T00:17:58.291Z,0.88
2023-04-02T00:21:09.334Z,0.82
2023-04-02T00:24:16.017Z,0.73
2023-04-02T00:27:18.255Z,0.57
2023-04-02T00:30:20.564Z,0.90
2023-04-02T00:33:25.922Z,0.40
2023-04-02T00:36:30.565Z,0.50
2023-04-02T00:39:41.567Z,0.60
2023-04-02T00:42:44.715Z,0.60
2023-04-02T00:45:51.168Z,0.30
2023-04-02T00:49:12.786Z,0.68
2023-04-02T00:52:17.679Z,0.60
2023-04-02T00:55:36.659Z,0.57
2023-04-02T00:58:40.007Z,0.40
2023-04-02T01:01:44.986Z,0.40
2023-04-02T01:05:22.496Z,0.73
2023-04-02T01:08:46.976Z,0.55
2023-04-02T01:12:32.109Z,0.65
2023-04-02T01:15:46.172Z,0.70
2023-04-02T01:18:54.084Z,0.50
2023-04-02T01:22:10.985Z,0.55
2023-04-02T01:25:17.803Z,0.40
2023-04-02T01:28:25.253Z,0.67
2023-04-02T01:31:34.170Z,0.60
2023-04-02T01:34:40.622Z,0.90
2023-04-02T01:38:04.484Z,0.60
2023-04-02T01:41:29.104Z,0.50
2023-04-02T01:44:38.485Z,0.45
2023-04-02T01:47:41.673Z,0.50
2023-04-02T01:50:45.533Z,0.50
2023-04-02T01:53:49.203Z,0.70
2023-04-02T01:56:58.069Z,0.40
2023-04-02T02:00:02.023Z,0.50
2023-04-02T02:03:06.456Z,0.50
2023-04-02T02:06:13.637Z,0.47
2023-04-02T02:09:28.688Z,0.40
2023-04-02T02:12:37.035Z,0.70
2023-04-02T02:15:45.700Z,0.52
2023-04-02T02:18:53.509Z,0.60
2023-04-02T02:22:26.708Z,0.60
2023-04-02T02:25:35.691Z,0.45
2023-04-02T02:28:40.585Z,0.30
2023-04-02T02:31:45.101Z,0.50
2023-04-02T02:35:24.059Z,0.40
2023-04-02T02:38:34.077Z,0.43
2023-04-02T02:42:08.156Z,0.77
2023-04-02T02:45:16.396Z,0.40
2023-04-02T02:48:24.754Z,0.68
2023-04-02T02:51:33.947Z,0.50
2023-04-02T02:54:45.479Z,0.70
2023-04-02T02:57:55.520Z,0.80
2023-04-02T03:01:03.296Z,0.70
2023-04-02T03:04:10.142Z,0.60
2023-04-02T03:07:16.531Z,0.30
2023-04-02T03:10:47.171Z,0.60
2023-04-02T03:13:58.768Z,0.50
2023-04-02T03:17:06.912Z,0.95
2023-04-02T03:20:27.736Z,0.52
2023-04-02T03:23:35.772Z,0.43
2023-04-02T03:26:47.694Z,0.77
2023-04-02T03:30:33.505Z,0.90
2023-04-02T03:34:05.586Z,0.57
2023-04-02T03:37:13.169Z,0.63
2023-04-02T03:40:22.050Z,0.55
2023-04-02T03:43:28.456Z,0.60
2023-04-02T03:46:39.636Z,0.73
2023-04-02T03:50:15.640Z,0.70
2023-04-02T03:53:21.445Z,0.70
2023-04-02T03:56:41.139Z,0.90
2023-04-02T04:00:45.486Z,0.70
2023-04-02T04:03:51.900Z,0.55
2023-04-02T04:07:02.116Z,0.60
2023-04-02T04:10:08.062Z,0.80
2023-04-02T04:13:16.503Z,0.50
2023-04-02T04:17:01.990Z,0.52
2023-04-02T04:20:36.816Z,0.50
2023-04-02T04:23:51.873Z,0.50
2023-04-02T04:27:04.009Z,0.75
2023-04-02T04:30:29.283Z,0.70
2023-04-02T04:33:41.202Z,0.70
2023-04-02T04:36:54.779Z,0.75
2023-04-02T04:40:17.509Z,0.60
2023-04-02T04:43:45.557Z,0.90
2023-04-02T04:47:06.135Z,0.75
2023-04-02T04:50:28.707Z,0.80
2023-04-02T04:53:47.460Z,0.73
2023-04-02T04:56:57.796Z,0.95
2023-04-02T05:00:07.211Z,0.90
2023-04-02T05:03:21.019Z,0.80
2023-04-02T05:06:37.476Z,0.50
2023-04-02T05:09:58.842Z,1.13
2023-04-02T05:13:07.880Z,1.00
2023-04-02T05:16:55.374Z,0.90
2023-04-02T05:20:25.375Z,0.77
2023-04-02T05:23:33.014Z,0.90
2023-04-02T05:26:44.700Z,0.75
2023-04-02T05:29:53.218Z,1.00
2023-04-02T05:33:12.817Z,0.75
2023-04-02T05:36:24.488Z,1.00
2023-04-02T05:39:32.549Z,0.60
2023-04-02T05:42:37.867Z,0.80
2023-04-02T05:45:51.885Z,0.80
2023-04-02T05:48:58.792Z,0.73
2023-04-02T05:52:03.831Z,0.68
2023-04-02T05:55:31.351Z,0.80
2023-04-02T05:58:51.601Z,0.60
2023-04-02T06:02:16.930Z,0.98
2023-04-02T06:05:23.167Z,0.88
2023-04-02T06:08:36.626Z,0.75
2023-04-02T06:11:47.095Z,0.53
2023-04-02T06:14:53.159Z,0.88
2023-04-02T06:18:09.038Z,0.70
2023-04-02T06:21:16.766Z,0.70
2023-04-02T06:24:24.594Z,0.80
2023-04-02T06:27:30.536Z,0.75
2023-04-02T06:30:37.493Z,0.57
2023-04-02T06:33:40.767Z,0.80
2023-04-02T06:36:44.994Z,0.80
2023-04-02T06:39:49.651Z,0.80
2023-04-02T06:43:02.317Z,0.53
2023-04-02T06:46:26.279Z,0.90
2023-04-02T06:50:04.090Z,0.75
2023-04-02T06:53:09.698Z,0.73
2023-04-02T06:56:37.337Z,0.60
2023-04-02T06:59:42.310Z,0.90
2023-04-02T07:02:55.330Z,0.70
2023-04-02T07:05:59.589Z,0.77
2023-04-02T07:09:03.485Z,0.90
2023-04-02T07:12:13.472Z,0.60
2023-04-02T07:15:19.317Z,1.10
2023-04-02T07:18:30.173Z,0.95
2023-04-02T07:21:33.805Z,0.95
2023-04-02T07:24:36.575Z,0.90
2023-04-02T07:30:57.635Z,0.77
2023-04-02T07:34:01.300Z,0.60
2023-04-02T07:37:04.084Z,1.00
2023-04-02T07:40:12.316Z,0.68
2023-04-02T07:43:15.131Z,0.70
2023-04-02T07:46:21.712Z,0.57
2023-04-02T07:49:24.111Z,0.80
2023-04-02T07:52:26.552Z,0.82
2023-04-02T07:55:29.015Z,1.00
2023-04-02T07:58:33.328Z,0.80
2023-04-02T08:01:38.716Z,1.00
2023-04-02T08:04:41.150Z,1.20
2023-04-02T08:07:44.523Z,0.85
2023-04-02T08:10:49.348Z,0.70
2023-04-02T08:13:52.246Z,0.70
2023-04-02T08:16:57.820Z,1.20
2023-04-02T08:20:01.296Z,1.00
2023-04-02T08:23:04.596Z,0.88
2023-04-02T08:26:07.356Z,1.20
2023-04-02T08:29:09.887Z,0.93
2023-04-02T08:32:16.302Z,1.20
2023-04-02T08:35:24.155Z,1.20
2023-04-02T08:38:26.708Z,0.88
2023-04-02T08:41:31.445Z,1.20
2023-04-02T08:45:02.386Z,0.85
2023-04-02T08:48:18.262Z,1.27
2023-04-02T08:51:33.860Z,1.35
2023-04-02T08:54:46.475Z,1.30
2023-04-02T08:58:04.471Z,1.20
2023-04-02T09:01:33.044Z,1.10
2023-04-02T09:04:44.949Z,1.05
2023-04-02T09:07:51.072Z,1.05
2023-04-02T09:11:01.693Z,1.20
2023-04-02T09:14:07.201Z,1.33
2023-04-02T09:17:42.732Z,1.20
2023-04-02T09:20:57.142Z,1.20
2023-04-02T09:23:59.428Z,1.48
2023-04-02T09:27:04.777Z,1.25
2023-04-02T09:30:29.838Z,1.50
2023-04-02T09:34:01.585Z,1.20
2023-04-02T09:37:17.778Z,1.05
2023-04-02T09:40:22.971Z,1.50
2023-04-02T09:43:41.036Z,1.05
2023-04-02T09:47:09.740Z,1.15
2023-04-02T09:50:26.129Z,1.15
2023-04-02T09:53:32.228Z,1.00
2023-04-02T09:56:36.911Z,1.17
2023-04-02T09:59:44.515Z,2.05
2023-04-02T10:02:47.408Z,1.97
2023-04-02T10:05:50.587Z,1.17
2023-04-02T10:08:53.702Z,1.50
2023-04-02T10:11:56.526Z,1.35
2023-04-02T10:14:59.954Z,1.38
2023-04-02T10:18:15.807Z,1.42
2023-04-02T10:21:31.702Z,1.33
2023-04-02T10:24:37.076Z,1.47
2023-04-02T10:27:47.585Z,1.35
2023-04-02T10:31:32.732Z,1.77
2023-04-02T10:34:44.091Z,1.30
2023-04-02T10:37:47.270Z,1.10
2023-04-02T10:40:58.516Z,1.58
2023-04-02T10:44:18.993Z,1.13
2023-04-02T10:47:33.839Z,1.60
2023-04-02T10:50:50.786Z,1.17
2023-04-02T10:54:05.373Z,1.50
2023-04-02T10:57:20.963Z,1.60
2023-04-02T11:00:31.733Z,1.50
2023-04-02T11:03:41.672Z,1.92
2023-04-02T11:06:47.887Z,1.97
2023-04-02T11:09:52.762Z,1.75
2023-04-02T11:13:02.381Z,1.92
2023-04-02T11:16:08.061Z,1.80
2023-04-02T11:19:18.724Z,1.60
2023-04-02T11:22:23.448Z,1.58
2023-04-02T11:25:26.143Z,1.40
2023-04-02T11:28:41.551Z,1.00
2023-04-02T11:31:48.003Z,1.20
2023-04-02T11:35:06.534Z,1.00
2023-04-02T11:38:18.028Z,1.20
2023-04-02T11:42:01.274Z,0.93
2023-04-02T11:45:25.772Z,1.58
2023-04-02T11:48:36.089Z,1.02
2023-04-02T11:51:40.775Z,0.63
2023-04-02T11:54:44.664Z,0.77
2023-04-02T11:57:59.083Z,0.77
2023-04-02T12:01:16.727Z,0.40
2023-04-02T12:04:34.396Z,0.50
2023-04-02T12:07:56.766Z,0.68
2023-04-02T12:11:00.785Z,0.80
2023-04-02T12:14:49.243Z,0.30
2023-04-02T12:17:51.770Z,0.63
2023-04-02T12:20:57.527Z,0.55
2023-04-02T12:24:00.494Z,0.70
2023-04-02T12:27:24.890Z,0.85
2023-04-02T12:30:27.391Z,0.63
2023-04-02T12:33:37.254Z,0.40
2023-04-02T12:36:43.469Z,0.55
2023-04-02T12:40:03.343Z,0.52
2023-04-02T12:43:26.316Z,0.40
2023-04-02T12:46:30.924Z,0.40
2023-04-02T12:49:40.634Z,0.52
2023-04-02T12:52:48.552Z,0.55
2023-04-02T12:55:54.013Z,0.93
2023-04-02T12:59:01.224Z,0.70
2023-04-02T13:02:17.691Z,0.73
2023-04-02T13:05:36.883Z,0.53
2023-04-02T13:08:42.181Z,0.80
2023-04-02T13:11:44.776Z,0.68
2023-04-02T13:14:48.626Z,0.70
2023-04-02T13:18:20.544Z,0.40
2023-04-02T13:21:34.642Z,0.70
2023-04-02T13:24:36.854Z,0.88
2023-04-02T13:27:39.290Z,0.70
2023-04-02T13:30:41.795Z,0.70
2023-04-02T13:33:44.077Z,0.73
2023-04-02T13:36:47.141Z,0.60
2023-04-02T13:39:49.419Z,0.80
2023-04-02T13:42:51.623Z,0.60
2023-04-02T13:45:54.735Z,0.50
2023-04-02T13:48:57.684Z,0.50
2023-04-02T13:52:03.773Z,0.60
2023-04-02T13:55:06.440Z,0.55
2023-04-02T13:58:09.529Z,0.70
2023-04-02T14:01:12.396Z,0.55
2023-04-02T14:04:19.940Z,0.70
2023-04-02T14:07:42.939Z,0.60
2023-04-02T14:11:07.179Z,0.40
2023-04-02T14:14:29.436Z,0.60
2023-04-02T14:17:50.771Z,0.40
2023-04-02T14:21:16.740Z,0.40
2023-04-02T14:24:37.341Z,0.50
2023-04-02T14:28:02.205Z,0.50
2023-04-02T14:31:11.412Z,1.00
2023-04-02T14:34:35.451Z,0.70
2023-04-02T14:37:50.032Z,0.43
2023-04-02T14:44:12.425Z,0.73
2023-04-02T14:47:23.273Z,0.38
2023-04-02T14:50:52.423Z,0.70
2023-04-02T14:54:00.231Z,0.77
2023-04-02T14:57:35.112Z,0.80
2023-04-02T15:00:41.868Z,0.70
2023-04-02T15:03:53.429Z,0.57
2023-04-02T15:07:03.345Z,0.60
2023-04-02T15:10:27.581Z,1.02
2023-04-02T15:13:42.079Z,0.70
2023-04-02T15:16:44.850Z,0.90
2023-04-02T15:19:52.446Z,0.80
2023-04-02T15:23:03.484Z,0.60
2023-04-02T15:26:20.229Z,0.85
2023-04-02T15:29:55.120Z,0.80
2023-04-02T15:33:32.090Z,0.70
2023-04-02T15:36:44.090Z,1.00
2023-04-02T15:40:18.692Z,0.98
2023-04-02T15:43:36.898Z,0.98
2023-04-02T15:46:58.270Z,1.10
2023-04-02T15:50:39.470Z,1.17
2023-04-02T15:53:50.118Z,0.90
2023-04-02T15:57:39.185Z,1.07
2023-04-02T16:01:08.517Z,1.20
2023-04-02T16:04:32.556Z,1.13
2023-04-02T16:07:59.642Z,1.08
2023-04-02T16:11:02.132Z,1.17
2023-04-02T16:14:24.670Z,1.13
2023-04-02T16:17:35.237Z,1.42
2023-04-02T16:20:42.583Z,2.00
2023-04-02T16:23:45.778Z,1.77
2023-04-02T16:26:56.990Z,1.58
2023-04-02T16:30:14.309Z,1.70
2023-04-02T16:33:35.258Z,2.00
2023-04-02T16:37:02.243Z,2.10
2023-04-02T16:40:33.075Z,2.33
2023-04-02T16:43:50.000Z,2.10
2023-04-02T16:47:29.851Z,2.30
2023-04-02T16:50:56.583Z,2.40
2023-04-02T16:54:29.628Z,2.10
2023-04-02T16:57:48.190Z,2.60
2023-04-02T17:00:59.771Z,1.90
2023-04-02T17:04:29.813Z,2.27
2023-04-02T17:07:47.241Z,1.85
2023-04-02T17:11:08.323Z,2.20
2023-04-02T17:14:24.308Z,2.15
2023-04-02T17:17:26.866Z,2.15
2023-04-02T17:20:32.663Z,2.33
2023-04-02T17:23:56.230Z,2.30
2023-04-02T17:27:06.698Z,2.23
2023-04-02T17:30:19.968Z,2.15
2023-04-02T17:33:27.188Z,1.90
2023-04-02T17:36:56.349Z,1.40
2023-04-02T17:40:21.764Z,1.13
2023-04-02T17:43:48.623Z,1.10
2023-04-02T17:47:02.809Z,1.08
2023-04-02T17:50:39.306Z,0.95
2023-04-02T17:54:27.761Z,0.85
2023-04-02T17:58:02.592Z,1.20
2023-04-02T18:01:14.934Z,1.07
2023-04-02T18:04:26.536Z,1.20
2023-04-02T18:08:12.575Z,1.40
2023-04-02T18:11:47.858Z,1.40
2023-04-02T18:15:36.362Z,1.45
2023-04-02T18:18:45.979Z,1.40
2023-04-02T18:21:57.084Z,1.50
2023-04-02T18:25:15.129Z,1.80
2023-04-02T18:28:39.967Z,2.08
2023-04-02T18:31:56.658Z,2.22
2023-04-02T18:35:35.625Z,1.93
2023-04-02T18:38:44.553Z,1.75
2023-04-02T18:42:44.246Z,2.40
2023-04-02T18:45:56.520Z,2.40
2023-04-02T18:49:21.665Z,2.00
2023-04-02T18:52:27.746Z,2.13
2023-04-02T18:55:36.132Z,2.10
2023-04-02T18:59:03.744Z,2.70
2023-04-02T19:02:28.294Z,2.60
2023-04-02T19:05:41.611Z,2.35
2023-04-02T19:09:08.732Z,2.23
2023-04-02T19:12:32.466Z,2.33
2023-04-02T19:15:46.231Z,2.65
2023-04-02T19:19:17.229Z,2.83
2023-04-02T19:22:30.414Z,2.20
2023-04-02T19:25:44.670Z,2.80
2023-04-02T19:28:50.697Z,2.63
2023-04-02T19:32:26.365Z,2.60
2023-04-02T19:35:32.686Z,2.65
2023-04-02T19:38:54.322Z,2.58
2023-04-02T19:42:16.860Z,2.70
2023-04-02T19:45:30.340Z,2.83
2023-04-02T19:49:23.009Z,2.40
2023-04-02T19:52:25.266Z,2.50
2023-04-02T19:55:27.588Z,2.70
2023-04-02T19:58:35.017Z,2.55
2023-04-02T20:01:38.086Z,2.83
2023-04-02T20:04:40.482Z,2.78
2023-04-02T20:07:45.596Z,2.80
2023-04-02T20:10:48.222Z,2.50
2023-04-02T20:13:50.901Z,2.60
2023-04-02T20:16:53.622Z,3.22
2023-04-02T20:19:55.991Z,2.83
2023-04-02T20:22:58.289Z,2.80
2023-04-02T20:26:01.286Z,2.58
2023-04-02T20:29:04.147Z,2.88
2023-04-02T20:32:07.508Z,2.72
2023-04-02T20:35:09.907Z,2.50
2023-04-02T20:38:16.684Z,2.88
2023-04-02T20:41:19.561Z,3.10
2023-04-02T20:44:22.304Z,2.77
2023-04-02T20:47:24.755Z,2.60
2023-04-02T20:50:27.585Z,2.92
2023-04-02T20:53:33.821Z,2.77
2023-04-02T20:56:38.500Z,2.72
2023-04-02T20:59:46.145Z,2.50
2023-04-02T21:02:52.863Z,2.88
2023-04-02T21:05:55.415Z,2.60
2023-04-02T21:09:00.762Z,2.60
2023-04-02T21:12:03.206Z,2.50
2023-04-02T21:15:06.191Z,2.60
2023-04-02T21:18:08.546Z,2.65
2023-04-02T21:21:15.556Z,2.30
2023-04-02T21:24:19.823Z,2.33
2023-04-02T21:27:25.816Z,2.70
2023-04-02T21:30:28.555Z,2.60
2023-04-02T21:33:32.217Z,2.50
2023-04-02T21:36:42.670Z,2.80
2023-04-02T21:39:45.404Z,2.60
2023-04-02T21:42:47.793Z,2.72
2023-04-02T21:45:50.437Z,2.40
2023-04-02T21:48:54.254Z,2.65
2023-04-02T21:51:57.072Z,2.00
2023-04-02T21:55:01.963Z,1.90
2023-04-02T21:58:08.659Z,1.63
2023-04-02T22:01:26.158Z,1.40
2023-04-02T22:04:30.809Z,1.30
2023-04-02T22:07:33.203Z,1.40
2023-04-02T22:10:36.263Z,1.00
2023-04-02T22:13:42.729Z,1.27
2023-04-02T22:16:45.461Z,0.90
2023-04-02T22:19:47.964Z,1.00
2023-04-02T22:22:51.447Z,0.90
2023-04-02T22:25:55.809Z,1.10
2023-04-02T22:28:59.194Z,0.65
2023-04-02T22:32:01.470Z,0.80
2023-04-02T22:35:03.717Z,1.13
2023-04-02T22:38:06.367Z,0.80
2023-04-02T22:41:14.405Z,1.60
2023-04-02T22:44:17.104Z,1.30
2023-04-02T22:47:19.675Z,1.63
2023-04-02T22:50:21.959Z,2.08
2023-04-02T22:53:24.717Z,2.33
2023-04-02T22:56:32.314Z,2.10
2023-04-02T22:59:34.743Z,2.20
2023-04-02T23:02:37.924Z,2.47
2023-04-02T23:05:42.547Z,2.10
2023-04-02T23:08:45.725Z,2.28
2023-04-02T23:11:51.615Z,2.75
2023-04-02T23:14:53.950Z,2.67
2023-04-02T23:17:56.315Z,2.50
2023-04-02T23:21:01.230Z,2.53
2023-04-02T23:24:03.712Z,2.65
2023-04-02T23:27:06.332Z,2.97
2023-04-02T23:30:08.930Z,2.95
2023-04-02T23:33:11.469Z,3.00
2023-04-02T23:36:17.179Z,2.72
2023-04-02T23:39:20.487Z,2.88
2023-04-02T23:42:23.073Z,2.85
2023-04-02T23:45:25.385Z,2.50
2023-04-02T23:48:27.843Z,2.93
2023-04-02T23:51:33.301Z,3.10
2023-04-02T23:54:35.708Z,3.35
2023-04-02T23:57:40.296Z,3.00
